Manitowoc, WI

11:20 AM CDT on March 30, 2015 (GMT -0500)
Western Shore of Lake Michigan | | Change Station
CLOSE
Current Station
Personal Weather Station
Location: Manitowoc, WI
Elevation: 639 ft
Nearby Weather Stations

Elev 639 ft 44.11 °N, 87.67 °W | Updated 11 seconds ago

Clear
Clear
51.5 °F
Feels Like 51.5 °F
N
3.1
Wind Variable Wind from NW
Gusts 6.9 mph

Today
High -- | Low -- °F
--% Chance of Precip.
Yesterday
High -- | Low -- °F
Precip. -- in
6:36 AM 7:15 PM
Waxing Gibbous, 80% visible
Pressure 30.02 in
Visibility 10.0 miles
Clouds Clear
Dew Point 30 °F
Humidity 44%
Rainfall 0.00 in
Snow Depth Not available.
UV 5 out of 12
Pollen 2.30 out of 12
Air Quality Not available.
Flu Activity Not available.
METAR KMTW 301556Z AUTO 30016G21KT 10SM CLR 09/M02 A2993 RMK AO2 SLP164 T00941022

More Conditions Fewer Conditions

Pressure 30.02 in
Visibility 10.0 miles
Clouds Clear
Dew Point 30 °F
Humidity 44%
Rainfall 0.00 in
Snow Depth Not available.
UV 5 out of 12
Pollen 2.30 out of 12
Air Quality Not available.
Flu Activity Not available.
METAR KMTW 301556Z AUTO 30016G21KT 10SM CLR 09/M02 A2993 RMK AO2 SLP164 T00941022

More Conditions Fewer Conditions

10-Day Weather Forecast

Almanac

Astronomy

Mar. 30, 2015 Rise Set
Actual Time
Civil Twilight
Nautical Twilight
Astronomical Twilight
Moon
Length of Visible Light
Length of Day
Tomorrow will be .
, % of the Moon is Illuminated

Today's Extremes

State Highs State Lows

Community

WunderPhotos

Upload Photos

1,809,527 photos uploaded!

WunderBlogs® & News

Nearby

Air Quality

  Air Quality AQ Index Pollutant
Not available.

Snow Depth

Station Depth Elevation

Earthquake Activity

City Distance Mag. Time & Date
Minimum magnitude displayed is 2.5.

Coastal Water Temperatures

Place Temperature

Stations

Nearby Weather Stations

Station Location Temp. Windchill Dew Point Humidity Wind Precip. Elev Updated Type